• Join FlightAware (Why Join?)
  • Login
  • US Flag 
08:34PM EST


 

Airport Tracker/Info


-or-


 

Live Flight TrackerFlight Track Log ✈ N217TM ✈ 11-Dec-2013 ✈ KOKC - KHQZ

Flight Track Log - Related Links

Times and Time Zones

All times are in EST time to prevent confusion due to time zone crossing. See the N217TM flight status page for this flight to view local times or setup timezone preferences in your user account.

Time Position Orientation Groundspeed Altitude Reporting Facility
EST Latitude Longitude Course Direction KTS MPH feet Rate Location/Type
12:01PM 35.3975 -97.5872 138° Southeast 104 120 1,800  Level Fort Worth Center
12:02PM 35.4181 -97.5811 14° North 113 130 3,200 1,740 Climbing Fort Worth Center
12:03PM 35.4311 -97.5572 56° Northeast 116 133 4,500 1,560 Climbing Fort Worth Center
12:03PM 35.4289 -97.5483 107° East 123 142 4,800 1,620 Climbing Fort Worth Center
12:04PM 35.4303 -97.5150 87° East 120 138 6,200 1,740 Climbing Fort Worth Center
12:04PM 35.4303 -97.5044 90° East 129 148 6,600 1,680 Climbing Fort Worth Center
12:05PM 35.4303 -97.4700 90° East 127 146 8,000 1,800 Climbing Fort Worth Center
12:05PM 35.4269 -97.4586 110° East 142 163 8,400 1,620 Climbing Fort Worth Center
12:06PM 35.4050 -97.4286 132° Southeast 150 173 9,700 1,560 Climbing Fort Worth Center
12:07PM 35.0305 -97.4498 138° Southeast  Level Estimated
12:07PM 35.3539 -97.4000 155° Southeast 172 198 11,500  Level Fort Worth Center
12:08PM 35.3092 -97.3733 154° Southeast 180 207 13,000 1,380 Climbing Fort Worth Center
12:09PM 35.2639 -97.3442 152° Southeast 184 212 14,400 1,200 Climbing Fort Worth Center
12:10PM 35.2139 -97.3086 150° Southeast 203 234 15,600 1,380 Climbing Fort Worth Center
12:11PM 35.1525 -97.2642 149° Southeast 215 247 17,300 1,080 Climbing Fort Worth Center
12:12PM 35.1003 -97.2283 151° Southeast 215 247 17,900 780 Climbing Fort Worth Center
12:13PM 35.0472 -97.1892 149° Southeast 222 255 19,000 540 Climbing Fort Worth Center
12:14PM 34.9883 -97.1456 149° Southeast 244 281 19,100  Climbing Fort Worth Center
12:15PM 34.9219 -97.0997 150° Southeast 271 312 19,100 -120 Level Fort Worth Center
12:16PM 34.8553 -97.0481 148° Southeast 281 323 18,900 -60 Descending Fort Worth Center
12:17PM 34.7825 -96.9661 137° Southeast 294 338 19,000  Climbing Fort Worth Center
12:18PM 34.7217 -96.8986 138° Southeast 298 343 19,000  Level Fort Worth Center
12:19PM 34.6525 -96.8569 154° Southeast 280 322 19,000  Level Fort Worth Center
12:20PM 34.5814 -96.8311 163° South 269 310 19,000  Level Fort Worth Center
12:21PM 34.5106 -96.8033 162° South 267 307 19,000  Level Fort Worth Center
12:22PM 34.4256 -96.7717 163° South 267 307 19,000  Level Fort Worth Center
12:23PM 34.3539 -96.7422 161° South 270 311 19,000  Level Fort Worth Center
12:24PM 34.2819 -96.7156 163° South 271 312 19,000  Level Fort Worth Center
12:26PM 34.2092 -96.6878 162° South 274 315 19,000  Level Fort Worth Center
12:27PM 34.1369 -96.6603 163° South 274 315 19,000  Level Fort Worth Center
12:28PM 34.0544 -96.6292 163° South 274 315 19,000  Level Fort Worth Center
12:29PM 33.9814 -96.6019 163° South 275 316 19,000  Level Fort Worth Center
12:30PM 33.9092 -96.5744 162° South 272 313 19,000 -60 Level Fort Worth Center
12:31PM 33.8372 -96.5469 162° South 272 313 18,900 -1,020 Descending Fort Worth Center
12:32PM 33.7514 -96.5158 163° South 275 316 16,900 -2,160 Descending Fort Worth Center
12:33PM 33.6778 -96.4872 162° South 279 321 14,500 -2,460 Descending Fort Worth Center
12:34PM 33.6022 -96.4589 163° South 265 305 11,900 -2,040 Descending Fort Worth Center
12:35PM 33.5339 -96.4342 163° South 258 297 10,300 -1,500 Descending Fort Worth Center
12:36PM 33.4667 -96.4094 163° South 254 292 8,800 -1,260 Descending Fort Worth Center
12:37PM 33.3981 -96.3842 163° South 239 275 7,700 -900 Descending Fort Worth Center
12:38PM 33.3361 -96.3694 169° South 229 264 7,000 -720 Descending Fort Worth Center
12:39PM 33.2681 -96.3728 182° South 225 259 6,300 -720 Descending Fort Worth Center
12:40PM 33.2333 -96.3833 194° South 222 255 5,800 -840 Descending Dallas / Fort Worth TRACON
12:41PM 33.1667 -96.3833 180° South 223 257 4,900 -1,200 Descending Dallas / Fort Worth TRACON
12:42PM 33.1000 -96.4000 192° South 237 273 3,300 -1,260 Descending Dallas / Fort Worth TRACON
12:43PM 33.0333 -96.4167 192° South 205 236 2,300 -720 Descending Dallas / Fort Worth TRACON
12:44PM 32.9578 -96.4311 189° South 205 236 1,700 -240 Descending Fort Worth Center
12:45PM 32.9006 -96.4483 194° South 212 244 1,800  Climbing Fort Worth Center
12:46PM 32.8539 -96.4825 212° Southwest 181 208 1,800 -120 Level Fort Worth Center
12:47PM 32.8267 -96.5189 228° Southwest 148 170 1,600 -180 Descending Fort Worth Center
12:48PM 32.7975 -96.5300 198° South 104 120 1,500 -300 Descending Fort Worth Center
12:49PM 32.7747 -96.5294 179° South 84 97 1,100 -540 Descending Fort Worth Center
12:50PM 32.7539 -96.5306 183° South 84 97 500 -600 Descending Fort Worth Center